createdAt,value
2019-02-24T00:00:52.995Z,0.00
2019-02-24T00:01:52.983Z,0.00
2019-02-24T00:02:52.972Z,0.00
2019-02-24T00:03:54.686Z,0.00
2019-02-24T00:04:52.946Z,0.00
2019-02-24T00:05:52.940Z,0.00
2019-02-24T00:06:52.929Z,0.00
2019-02-24T00:07:52.917Z,0.00
2019-02-24T00:08:52.906Z,0.00
2019-02-24T00:09:52.893Z,0.00
2019-02-24T00:10:52.885Z,0.00
2019-02-24T00:11:52.882Z,0.00
2019-02-24T00:16:52.819Z,0.00
2019-02-24T00:17:52.807Z,0.00
2019-02-24T00:18:52.800Z,0.00
2019-02-24T00:19:52.789Z,0.00
2019-02-24T00:20:52.775Z,0.00
2019-02-24T00:21:52.765Z,0.00
2019-02-24T00:39:52.971Z,0.00
2019-02-24T00:48:52.472Z,0.00
2019-02-24T00:49:52.461Z,0.00
2019-02-24T00:50:52.453Z,0.00
2019-02-24T00:51:52.442Z,0.00
2019-02-24T00:52:52.434Z,0.00
2019-02-24T00:53:52.418Z,0.00
2019-02-24T00:54:52.411Z,0.00
2019-02-24T00:55:52.397Z,0.00
2019-02-24T00:56:52.390Z,0.00
2019-02-24T00:57:52.376Z,0.00
2019-02-24T00:58:52.366Z,0.00
2019-02-24T00:59:52.355Z,0.00
2019-02-24T01:00:52.346Z,0.00
2019-02-24T01:01:52.333Z,0.00
2019-02-24T01:02:52.372Z,0.00
2019-02-24T01:03:52.311Z,0.00
2019-02-24T01:04:52.301Z,0.00
2019-02-24T01:05:52.291Z,0.00
2019-02-24T01:06:52.276Z,0.00
2019-02-24T01:07:52.266Z,0.00
2019-02-24T01:08:52.257Z,0.00
2019-02-24T01:09:52.348Z,0.00
2019-02-24T01:10:52.235Z,0.00
2019-02-24T01:11:52.223Z,0.00
2019-02-24T01:12:52.214Z,0.00
2019-02-24T01:13:53.977Z,0.00
2019-02-24T01:14:52.191Z,0.00
2019-02-24T01:15:52.181Z,0.00
2019-02-24T01:16:52.179Z,0.00
2019-02-24T01:17:52.159Z,0.00
2019-02-24T01:18:52.146Z,0.00
2019-02-24T01:19:52.134Z,0.00
2019-02-24T01:20:52.126Z,0.00
2019-02-24T01:21:52.118Z,0.00
2019-02-24T01:22:52.106Z,0.00
2019-02-24T01:23:52.095Z,0.00
2019-02-24T01:24:52.085Z,0.00
2019-02-24T01:25:52.072Z,0.00
2019-02-24T01:26:52.059Z,0.00
2019-02-24T01:27:52.052Z,0.00
2019-02-24T01:28:52.041Z,0.00
2019-02-24T01:29:52.030Z,0.00
2019-02-24T01:31:52.005Z,0.00
2019-02-24T01:33:51.986Z,0.00
2019-02-24T01:34:51.980Z,0.00
2019-02-24T01:35:52.066Z,0.00
2019-02-24T01:44:51.870Z,0.00
2019-02-24T01:45:51.858Z,0.00
2019-02-24T01:47:51.837Z,0.00
2019-02-24T01:48:51.826Z,0.00
2019-02-24T01:49:51.816Z,0.00
2019-02-24T01:50:51.803Z,0.00
2019-02-24T01:51:51.793Z,0.00
2019-02-24T01:52:51.779Z,0.00
2019-02-24T01:53:51.771Z,0.00
2019-02-24T01:54:51.761Z,0.00
2019-02-24T01:55:51.751Z,0.00
2019-02-24T01:56:51.737Z,0.00
2019-02-24T01:57:51.729Z,0.00
2019-02-24T01:58:51.716Z,0.00
2019-02-24T01:59:51.707Z,0.00
2019-02-24T02:00:51.702Z,0.00
2019-02-24T02:01:51.685Z,0.00
2019-02-24T02:02:51.676Z,0.00
2019-02-24T02:03:51.667Z,0.00
2019-02-24T02:04:51.651Z,0.00
2019-02-24T02:05:51.643Z,0.00
2019-02-24T02:06:51.633Z,5.62
2019-02-24T02:07:51.618Z,5.62
2019-02-24T02:08:51.612Z,5.62
2019-02-24T02:09:51.597Z,5.62
2019-02-24T02:10:51.588Z,5.62
2019-02-24T02:11:51.580Z,5.62
2019-02-24T02:12:51.569Z,5.62
2019-02-24T02:13:51.699Z,11.25
2019-02-24T02:14:51.549Z,11.25
2019-02-24T02:15:51.535Z,11.25
2019-02-24T02:16:51.524Z,11.25
2019-02-24T02:17:51.516Z,11.25
2019-02-24T02:18:51.503Z,11.25
2019-02-24T02:19:51.494Z,11.25
2019-02-24T02:20:51.480Z,16.87
2019-02-24T02:21:51.469Z,16.87
2019-02-24T02:22:51.460Z,16.87
2019-02-24T02:23:51.446Z,16.87
2019-02-24T02:24:51.437Z,16.87
2019-02-24T02:25:51.425Z,16.87
2019-02-24T02:26:51.413Z,16.87
2019-02-24T02:27:51.405Z,22.50
2019-02-24T02:28:51.401Z,22.50
2019-02-24T02:29:51.386Z,22.50
2019-02-24T02:30:51.374Z,22.50
2019-02-24T02:31:51.365Z,22.50
2019-02-24T02:32:51.356Z,22.50
2019-02-24T02:33:51.341Z,28.12
2019-02-24T02:34:51.330Z,28.12
2019-02-24T02:35:51.422Z,28.12
2019-02-24T02:36:51.412Z,28.12
2019-02-24T02:37:51.298Z,28.12
2019-02-24T02:38:51.289Z,33.75
2019-02-24T02:39:51.276Z,33.75
2019-02-24T02:40:51.266Z,33.75
2019-02-24T02:41:51.258Z,33.75
2019-02-24T02:42:51.244Z,39.37
2019-02-24T02:43:51.234Z,39.37
2019-02-24T02:44:51.223Z,39.37
2019-02-24T02:45:51.209Z,45.00
2019-02-24T02:46:51.207Z,45.00
2019-02-24T02:47:51.206Z,45.00
2019-02-24T02:48:51.178Z,45.00
2019-02-24T02:49:51.167Z,50.62
2019-02-24T02:50:51.156Z,50.62
2019-02-24T02:51:51.148Z,50.62
2019-02-24T02:52:51.138Z,56.25
2019-02-24T02:53:51.126Z,56.25
2019-02-24T02:54:51.115Z,61.87
2019-02-24T02:55:51.101Z,61.87
2019-02-24T02:56:51.097Z,61.87
2019-02-24T02:57:51.185Z,67.50
2019-02-24T02:58:54.352Z,67.50
2019-02-24T02:59:51.162Z,67.50
2019-02-24T03:00:51.050Z,73.12
2019-02-24T03:01:51.039Z,73.12
2019-02-24T03:02:51.028Z,73.12
2019-02-24T03:03:51.017Z,78.75
2019-02-24T03:04:51.007Z,78.75
2019-02-24T03:05:50.993Z,78.75
2019-02-24T03:06:50.987Z,84.37
2019-02-24T03:07:50.973Z,84.37
2019-02-24T03:08:50.964Z,84.37
2019-02-24T03:09:50.953Z,84.37
2019-02-24T03:10:50.944Z,90.00
2019-02-24T03:11:51.031Z,90.00
2019-02-24T03:12:50.923Z,90.00
2019-02-24T03:13:50.918Z,90.00
2019-02-24T03:14:50.899Z,95.62
2019-02-24T03:15:50.888Z,95.62
2019-02-24T03:16:50.930Z,95.62
2019-02-24T03:17:50.865Z,95.62
2019-02-24T03:18:50.855Z,95.62
2019-02-24T03:19:50.845Z,101.25
2019-02-24T03:20:50.833Z,101.25
2019-02-24T03:21:50.823Z,101.25
2019-02-24T03:22:50.817Z,101.25
2019-02-24T03:23:50.805Z,106.87
2019-02-24T03:24:50.792Z,106.87
2019-02-24T03:25:50.779Z,106.87
2019-02-24T03:26:50.768Z,112.50
2019-02-24T03:27:50.760Z,112.50
2019-02-24T03:28:50.748Z,118.12
2019-02-24T03:29:50.739Z,118.12
2019-02-24T03:30:50.788Z,118.12
2019-02-24T03:31:50.719Z,123.75
2019-02-24T03:32:50.706Z,123.75
2019-02-24T03:33:50.695Z,129.37
2019-02-24T03:34:50.680Z,129.37
2019-02-24T03:35:50.672Z,135.00
2019-02-24T03:36:50.961Z,135.00
2019-02-24T03:37:50.653Z,135.00
2019-02-24T03:38:50.640Z,140.62
2019-02-24T03:39:50.632Z,140.62
2019-02-24T03:40:50.617Z,146.25
2019-02-24T03:41:50.605Z,146.25
2019-02-24T03:42:50.600Z,146.25
2019-02-24T03:43:50.582Z,151.87
2019-02-24T03:44:50.624Z,151.87
2019-02-24T03:45:50.563Z,157.50
2019-02-24T03:46:50.564Z,157.50
2019-02-24T03:47:50.545Z,157.50
2019-02-24T03:48:50.530Z,163.12
2019-02-24T03:49:50.521Z,163.12
2019-02-24T03:50:50.546Z,168.75
2019-02-24T03:51:50.498Z,168.75
2019-02-24T03:52:50.489Z,174.37
2019-02-24T03:53:50.475Z,174.37
2019-02-24T03:54:50.473Z,180.00
2019-02-24T03:55:50.460Z,185.62
2019-02-24T03:56:50.442Z,191.25
2019-02-24T03:57:50.431Z,191.25
2019-02-24T03:58:50.420Z,196.87
2019-02-24T03:59:50.423Z,202.50
2019-02-24T04:00:50.397Z,202.50
2019-02-24T04:01:50.394Z,208.12
2019-02-24T04:02:50.382Z,213.75
2019-02-24T04:03:50.369Z,219.37
2019-02-24T04:04:50.353Z,225.00
2019-02-24T04:05:50.345Z,225.00
2019-02-24T04:06:50.333Z,230.62
2019-02-24T04:07:50.323Z,236.25
2019-02-24T04:08:50.308Z,241.87
2019-02-24T04:09:50.298Z,247.50
2019-02-24T04:10:50.294Z,247.50
2019-02-24T04:11:50.275Z,258.75
2019-02-24T04:12:50.266Z,264.37
2019-02-24T04:13:50.253Z,270.00
2019-02-24T04:14:50.246Z,275.62
2019-02-24T04:15:50.233Z,281.25
2019-02-24T04:16:50.228Z,286.87
2019-02-24T04:17:50.210Z,286.87
2019-02-24T04:18:50.207Z,286.87
2019-02-24T04:19:50.189Z,286.87
2019-02-24T04:20:50.177Z,292.50
2019-02-24T04:21:50.166Z,298.12
2019-02-24T04:22:50.156Z,303.75
2019-02-24T04:23:50.145Z,303.75
2019-02-24T04:24:50.142Z,309.37
2019-02-24T04:25:50.131Z,309.37
2019-02-24T04:26:50.114Z,309.37
2019-02-24T04:27:50.109Z,315.00
2019-02-24T04:28:50.093Z,315.00
2019-02-24T04:29:50.081Z,320.62
2019-02-24T04:30:50.078Z,315.00
2019-02-24T04:31:50.160Z,315.00
2019-02-24T04:32:50.053Z,315.00
2019-02-24T04:33:50.043Z,309.37
2019-02-24T04:34:50.026Z,315.00
2019-02-24T04:35:50.027Z,315.00
2019-02-24T04:36:50.008Z,315.00
2019-02-24T04:37:50.102Z,315.00
2019-02-24T04:38:49.988Z,315.00
2019-02-24T04:39:49.979Z,309.37
2019-02-24T04:40:49.969Z,315.00
2019-02-24T04:41:49.956Z,315.00
2019-02-24T04:42:49.942Z,315.00
2019-02-24T04:43:49.933Z,315.00
2019-02-24T04:44:49.920Z,315.00
2019-02-24T04:45:49.913Z,320.62
2019-02-24T04:46:49.906Z,320.62
2019-02-24T04:47:49.890Z,315.00
2019-02-24T04:48:49.881Z,315.00
2019-02-24T04:49:49.870Z,315.00
2019-02-24T04:50:49.859Z,315.00
2019-02-24T04:51:49.851Z,315.00
2019-02-24T04:52:49.841Z,315.00
2019-02-24T04:53:49.831Z,309.37
2019-02-24T04:54:49.818Z,309.37
2019-02-24T04:55:49.808Z,309.37
2019-02-24T04:56:49.800Z,303.75
2019-02-24T04:57:49.785Z,303.75
2019-02-24T04:58:49.778Z,298.12
2019-02-24T04:59:49.763Z,298.12
2019-02-24T05:00:49.752Z,298.12
2019-02-24T05:01:49.746Z,292.50
2019-02-24T05:02:49.732Z,292.50
2019-02-24T05:03:49.721Z,292.50
2019-02-24T05:04:49.716Z,286.87
2019-02-24T05:05:49.700Z,292.50
2019-02-24T05:06:49.688Z,292.50
2019-02-24T05:07:49.693Z,286.87
2019-02-24T05:08:49.671Z,286.87
2019-02-24T05:09:49.654Z,286.87
2019-02-24T05:10:49.643Z,286.87
2019-02-24T05:11:49.634Z,286.87
2019-02-24T05:12:49.622Z,286.87
2019-02-24T05:13:49.615Z,286.87
2019-02-24T05:14:49.602Z,286.87
2019-02-24T05:15:49.596Z,286.87
2019-02-24T05:16:49.584Z,292.50
2019-02-24T05:17:49.575Z,292.50
2019-02-24T05:18:49.574Z,292.50
2019-02-24T05:19:49.558Z,292.50
2019-02-24T05:20:49.537Z,292.50
2019-02-24T05:21:49.527Z,298.12
2019-02-24T05:22:49.514Z,292.50
2019-02-24T05:23:49.506Z,292.50
2019-02-24T05:24:49.493Z,292.50
2019-02-24T05:25:49.484Z,286.87
2019-02-24T05:26:49.477Z,286.87
2019-02-24T05:27:49.472Z,286.87
2019-02-24T05:28:49.451Z,286.87
2019-02-24T05:29:49.449Z,286.87
2019-02-24T05:30:49.434Z,286.87
2019-02-24T05:31:49.417Z,286.87
2019-02-24T05:32:49.662Z,286.87
2019-02-24T05:33:49.404Z,286.87
2019-02-24T05:34:49.400Z,286.87
2019-02-24T05:35:49.375Z,281.25
2019-02-24T05:36:49.370Z,281.25
2019-02-24T05:37:49.353Z,281.25
2019-02-24T05:38:49.350Z,281.25
2019-02-24T05:39:49.334Z,281.25
2019-02-24T05:40:49.323Z,281.25
2019-02-24T05:41:49.311Z,275.62
2019-02-24T05:42:49.298Z,275.62
2019-02-24T05:43:49.293Z,281.25
2019-02-24T05:44:49.276Z,281.25
2019-02-24T05:45:49.267Z,281.25
2019-02-24T05:46:49.261Z,281.25
2019-02-24T05:47:49.253Z,286.87
2019-02-24T05:48:49.238Z,286.87
2019-02-24T05:49:49.225Z,286.87
2019-02-24T05:50:49.212Z,286.87
2019-02-24T05:51:49.207Z,292.50
2019-02-24T05:52:49.195Z,292.50
2019-02-24T05:53:49.178Z,292.50
2019-02-24T05:54:49.169Z,298.12
2019-02-24T05:55:49.158Z,298.12
2019-02-24T05:56:49.151Z,303.75
2019-02-24T05:57:49.136Z,303.75
2019-02-24T05:58:49.132Z,309.37
2019-02-24T05:59:55.367Z,315.00
2019-02-24T06:00:50.209Z,315.00
2019-02-24T06:01:49.095Z,320.62
2019-02-24T06:02:49.091Z,326.25
2019-02-24T06:03:49.072Z,326.25
2019-02-24T06:04:49.066Z,331.87
2019-02-24T06:05:49.053Z,331.87
2019-02-24T06:06:49.039Z,331.87
2019-02-24T06:07:49.028Z,337.50
2019-02-24T06:08:49.016Z,337.50
2019-02-24T06:09:49.036Z,337.50
2019-02-24T06:10:48.999Z,343.12
2019-02-24T06:11:48.986Z,343.12
2019-02-24T06:12:48.976Z,348.75
2019-02-24T06:13:48.964Z,348.75
2019-02-24T06:14:48.957Z,348.75
2019-02-24T06:15:48.950Z,348.75
2019-02-24T06:16:48.943Z,348.75
2019-02-24T06:17:48.922Z,348.75
2019-02-24T06:18:48.916Z,348.75
2019-02-24T06:19:48.902Z,343.12
2019-02-24T06:20:48.909Z,343.12
2019-02-24T06:21:48.884Z,343.12
2019-02-24T06:22:48.877Z,343.12
2019-02-24T06:23:48.858Z,337.50
2019-02-24T06:24:48.850Z,337.50
2019-02-24T06:25:48.837Z,337.50
2019-02-24T06:26:48.825Z,331.87
2019-02-24T06:27:48.812Z,331.87
2019-02-24T06:28:48.805Z,331.87
2019-02-24T06:29:48.794Z,331.87
2019-02-24T06:30:48.784Z,326.25
2019-02-24T06:31:48.797Z,326.25
2019-02-24T06:32:48.762Z,326.25
2019-02-24T06:33:49.058Z,320.62
2019-02-24T06:34:48.744Z,320.62
2019-02-24T06:35:48.730Z,315.00
2019-02-24T06:36:48.714Z,315.00
2019-02-24T06:37:48.709Z,315.00
2019-02-24T06:38:48.697Z,315.00
2019-02-24T06:39:48.685Z,315.00
2019-02-24T06:40:48.674Z,315.00
2019-02-24T06:41:48.663Z,309.37
2019-02-24T06:42:48.649Z,309.37
2019-02-24T06:43:48.644Z,309.37
2019-02-24T06:44:48.629Z,309.37
2019-02-24T06:45:48.618Z,309.37
2019-02-24T06:46:48.605Z,303.75
2019-02-24T06:47:48.598Z,303.75
2019-02-24T06:48:48.587Z,303.75
2019-02-24T06:49:48.575Z,303.75
2019-02-24T06:50:48.566Z,303.75
2019-02-24T06:51:48.551Z,309.37
2019-02-24T06:52:48.540Z,309.37
2019-02-24T06:53:48.534Z,309.37
2019-02-24T06:54:48.518Z,309.37
2019-02-24T06:55:48.507Z,309.37
2019-02-24T06:56:48.507Z,309.37
2019-02-24T06:57:48.491Z,309.37
2019-02-24T06:58:48.472Z,309.37
2019-02-24T06:59:48.465Z,309.37
2019-02-24T07:00:48.456Z,309.37
2019-02-24T07:01:48.440Z,315.00
2019-02-24T07:02:48.432Z,315.00
2019-02-24T07:03:48.418Z,320.62
2019-02-24T07:04:48.407Z,320.62
2019-02-24T07:05:48.399Z,320.62
2019-02-24T07:06:48.386Z,326.25
2019-02-24T07:07:48.376Z,326.25
2019-02-24T07:08:48.367Z,326.25
2019-02-24T07:09:48.452Z,326.25
2019-02-24T07:10:48.340Z,331.87
2019-02-24T07:11:48.342Z,331.87
2019-02-24T07:12:48.326Z,331.87
2019-02-24T07:13:48.318Z,331.87
2019-02-24T07:14:48.304Z,331.87
2019-02-24T07:15:48.287Z,331.87
2019-02-24T07:16:48.277Z,331.87
2019-02-24T07:17:48.264Z,331.87
2019-02-24T07:18:48.253Z,331.87
2019-02-24T07:19:48.240Z,331.87
2019-02-24T07:20:48.230Z,331.87
2019-02-24T07:21:48.224Z,337.50
2019-02-24T07:22:48.212Z,337.50
2019-02-24T07:23:48.201Z,337.50
2019-02-24T07:24:48.187Z,337.50
2019-02-24T07:25:48.176Z,337.50
2019-02-24T07:26:48.165Z,337.50
2019-02-24T07:27:48.151Z,337.50
2019-02-24T07:28:48.152Z,337.50
2019-02-24T07:29:48.132Z,337.50
2019-02-24T07:30:48.120Z,337.50
2019-02-24T07:31:48.110Z,331.87
2019-02-24T07:32:48.199Z,331.87
2019-02-24T07:33:48.094Z,331.87
2019-02-24T07:34:48.180Z,331.87
2019-02-24T07:35:48.171Z,331.87
2019-02-24T07:36:48.055Z,331.87
2019-02-24T07:37:48.055Z,331.87
2019-02-24T07:38:48.182Z,326.25
2019-02-24T07:39:48.021Z,326.25
2019-02-24T07:40:48.010Z,326.25
2019-02-24T07:41:47.998Z,326.25
2019-02-24T07:42:47.987Z,326.25
2019-02-24T07:43:47.977Z,326.25
2019-02-24T07:44:47.965Z,326.25
2019-02-24T07:45:47.953Z,326.25
2019-02-24T07:46:47.942Z,326.25
2019-02-24T07:47:47.930Z,331.87
2019-02-24T07:48:47.922Z,331.87
2019-02-24T07:49:47.913Z,331.87
2019-02-24T07:50:47.899Z,331.87
2019-02-24T07:51:47.887Z,331.87
2019-02-24T07:52:47.876Z,331.87
2019-02-24T07:53:47.867Z,331.87
2019-02-24T07:54:47.852Z,331.87
2019-02-24T07:55:47.845Z,326.25
2019-02-24T07:56:47.837Z,326.25
2019-02-24T07:57:47.821Z,326.25
2019-02-24T07:58:47.811Z,326.25
2019-02-24T07:59:47.798Z,326.25
2019-02-24T08:00:47.786Z,320.62
2019-02-24T08:01:47.777Z,320.62
2019-02-24T08:02:47.765Z,315.00
2019-02-24T08:03:47.758Z,315.00
2019-02-24T08:04:47.743Z,315.00
2019-02-24T08:05:47.733Z,315.00
2019-02-24T08:06:47.720Z,309.37
2019-02-24T08:07:47.712Z,309.37
2019-02-24T08:08:47.704Z,303.75
2019-02-24T08:09:47.689Z,303.75
2019-02-24T08:10:47.683Z,298.12
2019-02-24T08:11:47.668Z,298.12
2019-02-24T08:12:47.656Z,298.12
2019-02-24T08:13:47.644Z,298.12
2019-02-24T08:14:47.634Z,292.50
2019-02-24T08:15:47.624Z,292.50
2019-02-24T08:16:47.614Z,292.50
2019-02-24T08:17:47.602Z,286.87
2019-02-24T08:18:49.906Z,292.50
2019-02-24T08:19:47.582Z,292.50
2019-02-24T08:20:47.585Z,286.87
2019-02-24T08:21:47.560Z,292.50
2019-02-24T08:22:47.546Z,292.50
2019-02-24T08:23:47.539Z,298.12
2019-02-24T08:24:47.528Z,298.12
2019-02-24T08:25:47.514Z,298.12
2019-02-24T08:26:47.507Z,298.12
2019-02-24T08:27:47.494Z,298.12
2019-02-24T08:28:47.484Z,303.75
2019-02-24T08:29:47.471Z,303.75
2019-02-24T08:30:47.468Z,303.75
2019-02-24T08:31:47.447Z,309.37
2019-02-24T08:32:47.439Z,309.37
2019-02-24T08:33:47.581Z,303.75
2019-02-24T08:34:47.416Z,309.37
2019-02-24T08:35:47.614Z,309.37
2019-02-24T08:36:47.397Z,309.37
2019-02-24T08:37:47.387Z,309.37
2019-02-24T08:38:47.372Z,309.37
2019-02-24T08:39:47.363Z,309.37
2019-02-24T08:40:47.354Z,309.37
2019-02-24T08:41:47.342Z,309.37
2019-02-24T08:42:47.333Z,303.75
2019-02-24T08:43:47.321Z,303.75
2019-02-24T08:44:47.362Z,303.75
2019-02-24T08:45:47.300Z,303.75
2019-02-24T08:46:47.290Z,303.75
2019-02-24T08:47:47.280Z,303.75
2019-02-24T08:48:47.267Z,303.75
2019-02-24T08:49:47.256Z,303.75
2019-02-24T08:50:47.245Z,309.37
2019-02-24T08:51:47.232Z,303.75
2019-02-24T08:52:47.226Z,303.75
2019-02-24T08:53:47.218Z,303.75
2019-02-24T08:54:47.204Z,303.75
2019-02-24T08:55:47.194Z,303.75
2019-02-24T08:56:47.186Z,303.75
2019-02-24T08:57:47.271Z,303.75
2019-02-24T08:58:47.164Z,303.75
2019-02-24T08:59:47.253Z,303.75
2019-02-24T09:00:50.896Z,303.75
2019-02-24T09:01:47.125Z,298.12
2019-02-24T09:02:47.118Z,298.12
2019-02-24T09:03:47.104Z,298.12
2019-02-24T09:04:47.094Z,298.12
2019-02-24T09:05:47.083Z,298.12
2019-02-24T09:06:47.086Z,298.12
2019-02-24T09:07:47.070Z,298.12
2019-02-24T09:08:47.055Z,292.50
2019-02-24T09:09:47.041Z,292.50
2019-02-24T09:10:47.034Z,292.50
2019-02-24T09:11:47.029Z,292.50
2019-02-24T09:12:47.019Z,292.50
2019-02-24T09:13:46.998Z,292.50
2019-02-24T09:14:46.989Z,286.87
2019-02-24T09:15:46.977Z,286.87
2019-02-24T09:16:46.963Z,286.87
2019-02-24T09:17:46.954Z,281.25
2019-02-24T09:18:46.954Z,281.25
2019-02-24T09:19:46.936Z,281.25
2019-02-24T09:20:46.923Z,281.25
2019-02-24T09:21:46.921Z,281.25
2019-02-24T09:22:46.900Z,281.25
2019-02-24T09:23:46.896Z,281.25
2019-02-24T09:24:46.886Z,281.25
2019-02-24T09:25:46.866Z,281.25
2019-02-24T09:26:46.861Z,281.25
2019-02-24T09:27:46.842Z,281.25
2019-02-24T09:28:46.832Z,281.25
2019-02-24T09:29:46.829Z,281.25
2019-02-24T09:30:46.815Z,281.25
2019-02-24T09:31:46.802Z,275.62
2019-02-24T09:32:46.792Z,275.62
2019-02-24T09:33:46.781Z,275.62
2019-02-24T09:34:46.929Z,275.62
2019-02-24T09:35:46.758Z,275.62
2019-02-24T09:36:46.752Z,275.62
2019-02-24T09:37:46.737Z,275.62
2019-02-24T09:38:46.722Z,275.62
2019-02-24T09:39:46.713Z,275.62
2019-02-24T09:40:46.699Z,275.62
2019-02-24T09:41:46.690Z,270.00
2019-02-24T09:42:46.685Z,270.00
2019-02-24T09:43:46.670Z,264.37
2019-02-24T09:44:46.656Z,264.37
2019-02-24T09:45:46.645Z,264.37
2019-02-24T09:46:46.644Z,258.75
2019-02-24T09:47:47.300Z,258.75
2019-02-24T09:48:46.611Z,253.12
2019-02-24T09:49:46.612Z,253.12
2019-02-24T09:50:46.597Z,253.12
2019-02-24T09:51:46.582Z,247.50
2019-02-24T09:52:46.576Z,247.50
2019-02-24T09:53:46.557Z,241.87
2019-02-24T09:54:46.548Z,241.87
2019-02-24T09:55:46.537Z,236.25
2019-02-24T09:56:46.522Z,236.25
2019-02-24T09:57:46.516Z,236.25
2019-02-24T09:58:46.509Z,236.25
2019-02-24T09:59:46.490Z,230.62
2019-02-24T10:00:46.482Z,230.62
2019-02-24T10:01:46.473Z,230.62
2019-02-24T10:02:46.470Z,230.62
2019-02-24T10:03:46.455Z,225.00
2019-02-24T10:04:46.442Z,225.00
2019-02-24T10:05:46.435Z,225.00
2019-02-24T10:06:46.418Z,225.00
2019-02-24T10:07:46.405Z,225.00
2019-02-24T10:08:46.394Z,225.00
2019-02-24T10:09:46.382Z,225.00
2019-02-24T10:10:46.376Z,219.37
2019-02-24T10:11:46.363Z,219.37
2019-02-24T10:12:46.359Z,213.75
2019-02-24T10:13:46.337Z,213.75
2019-02-24T10:14:46.331Z,213.75
2019-02-24T10:15:46.316Z,208.12
2019-02-24T10:16:46.308Z,208.12
2019-02-24T10:17:46.303Z,208.12
2019-02-24T10:18:46.289Z,208.12
2019-02-24T10:19:46.274Z,208.12
2019-02-24T10:20:46.265Z,202.50
2019-02-24T10:21:46.248Z,202.50
2019-02-24T10:22:46.237Z,196.87
2019-02-24T10:23:46.227Z,196.87
2019-02-24T10:24:46.319Z,191.25
2019-02-24T10:25:46.210Z,185.62
2019-02-24T10:26:46.199Z,180.00
2019-02-24T10:27:46.186Z,180.00
2019-02-24T10:28:47.678Z,180.00
2019-02-24T10:29:46.162Z,174.37
2019-02-24T10:30:46.157Z,174.37
2019-02-24T10:31:46.146Z,174.37
2019-02-24T10:32:46.132Z,168.75
2019-02-24T10:33:46.117Z,168.75
2019-02-24T10:34:46.108Z,163.12
2019-02-24T10:35:46.209Z,157.50
2019-02-24T10:36:46.090Z,151.87
2019-02-24T10:37:46.078Z,140.62
2019-02-24T10:38:46.067Z,135.00
2019-02-24T10:39:46.053Z,129.37
2019-02-24T10:40:46.040Z,129.37
2019-02-24T10:41:46.033Z,123.75
2019-02-24T10:42:46.032Z,118.12
2019-02-24T10:43:46.017Z,112.50
2019-02-24T10:44:46.010Z,106.87
2019-02-24T10:45:45.992Z,101.25
2019-02-24T10:46:45.980Z,101.25
2019-02-24T10:47:45.972Z,95.62
2019-02-24T10:48:45.955Z,95.62
2019-02-24T10:49:45.945Z,90.00
2019-02-24T10:50:45.933Z,90.00
2019-02-24T10:51:45.923Z,90.00
2019-02-24T10:52:45.915Z,90.00
2019-02-24T10:53:45.903Z,84.37
2019-02-24T10:54:45.895Z,84.37
2019-02-24T10:55:45.878Z,84.37
2019-02-24T10:56:45.871Z,84.37
2019-02-24T10:57:45.860Z,84.37
2019-02-24T10:58:45.847Z,84.37
2019-02-24T10:59:45.840Z,84.37
2019-02-24T11:00:45.836Z,84.37
2019-02-24T11:01:45.825Z,84.37
2019-02-24T11:02:45.824Z,84.37
2019-02-24T11:03:45.805Z,84.37
2019-02-24T11:04:45.788Z,84.37
2019-02-24T11:05:45.776Z,84.37
2019-02-24T11:06:45.767Z,84.37
2019-02-24T11:07:45.755Z,84.37
2019-02-24T11:08:45.744Z,84.37
2019-02-24T11:09:45.739Z,84.37
2019-02-24T11:10:45.723Z,84.37
2019-02-24T11:11:45.718Z,84.37
2019-02-24T11:12:45.703Z,84.37
2019-02-24T11:13:45.708Z,90.00
2019-02-24T11:14:45.680Z,90.00
2019-02-24T11:15:45.676Z,90.00
2019-02-24T11:16:45.663Z,90.00
2019-02-24T11:17:45.654Z,90.00
2019-02-24T11:18:45.638Z,90.00
2019-02-24T11:19:45.629Z,90.00
2019-02-24T11:20:45.619Z,90.00
2019-02-24T11:21:45.608Z,90.00
2019-02-24T11:22:45.600Z,90.00
2019-02-24T11:23:45.587Z,90.00
2019-02-24T11:24:45.577Z,90.00
2019-02-24T11:25:45.568Z,90.00
2019-02-24T11:26:45.555Z,90.00
2019-02-24T11:27:45.543Z,90.00
2019-02-24T11:28:45.534Z,84.37
2019-02-24T11:29:45.521Z,84.37
2019-02-24T11:30:45.510Z,84.37
2019-02-24T11:31:45.498Z,84.37
2019-02-24T11:32:45.492Z,84.37
2019-02-24T11:33:45.481Z,78.75
2019-02-24T11:34:45.464Z,78.75
2019-02-24T11:35:45.464Z,78.75
2019-02-24T11:36:45.847Z,78.75
2019-02-24T11:37:45.432Z,73.12
2019-02-24T11:38:45.422Z,73.12
2019-02-24T11:39:45.409Z,73.12
2019-02-24T11:40:45.400Z,67.50
2019-02-24T11:41:45.399Z,67.50
2019-02-24T11:42:45.381Z,67.50
2019-02-24T11:43:45.366Z,67.50
2019-02-24T11:44:45.363Z,67.50
2019-02-24T11:45:45.345Z,67.50
2019-02-24T11:46:45.339Z,67.50
2019-02-24T11:47:45.325Z,61.87
2019-02-24T11:48:45.318Z,61.87
2019-02-24T11:49:45.303Z,61.87
2019-02-24T11:50:45.296Z,61.87
2019-02-24T11:51:45.280Z,56.25
2019-02-24T11:52:45.266Z,56.25
2019-02-24T11:53:45.256Z,56.25
2019-02-24T11:54:45.247Z,56.25
2019-02-24T11:55:45.241Z,50.62
2019-02-24T11:56:45.224Z,50.62
2019-02-24T11:57:45.213Z,50.62
2019-02-24T11:58:45.202Z,50.62
2019-02-24T11:59:45.191Z,50.62
2019-02-24T12:00:45.184Z,45.00
2019-02-24T12:01:47.505Z,45.00
2019-02-24T12:02:45.168Z,45.00
2019-02-24T12:03:45.150Z,45.00
2019-02-24T12:04:45.140Z,45.00
2019-02-24T12:05:45.170Z,45.00
2019-02-24T12:06:45.115Z,45.00
2019-02-24T12:07:45.105Z,45.00
2019-02-24T12:08:45.092Z,45.00
2019-02-24T12:09:45.084Z,45.00
2019-02-24T12:10:45.073Z,45.00
2019-02-24T12:11:45.060Z,45.00
2019-02-24T12:12:45.059Z,45.00
2019-02-24T12:13:45.038Z,45.00
2019-02-24T12:14:45.026Z,45.00
2019-02-24T12:15:45.026Z,45.00
2019-02-24T12:16:45.011Z,45.00
2019-02-24T12:17:45.000Z,39.37
2019-02-24T12:18:44.987Z,39.37
2019-02-24T12:19:44.977Z,39.37
2019-02-24T12:20:44.966Z,39.37
2019-02-24T12:21:44.957Z,39.37
2019-02-24T12:22:44.945Z,39.37
2019-02-24T12:23:44.938Z,39.37
2019-02-24T12:24:44.925Z,39.37
2019-02-24T12:25:44.913Z,33.75
2019-02-24T12:26:44.900Z,33.75
2019-02-24T12:27:44.889Z,33.75
2019-02-24T12:28:44.878Z,33.75
2019-02-24T12:29:44.870Z,33.75
2019-02-24T12:30:44.857Z,33.75
2019-02-24T12:31:44.846Z,33.75
2019-02-24T12:32:44.837Z,33.75
2019-02-24T12:33:44.822Z,28.12
2019-02-24T12:34:44.813Z,28.12
2019-02-24T12:35:44.802Z,28.12
2019-02-24T12:36:44.790Z,28.12
2019-02-24T12:37:44.881Z,28.12
2019-02-24T12:38:44.769Z,28.12
2019-02-24T12:39:44.756Z,28.12
2019-02-24T12:40:44.751Z,22.50
2019-02-24T12:41:44.737Z,22.50
2019-02-24T12:42:44.724Z,22.50
2019-02-24T12:43:44.717Z,22.50
2019-02-24T12:44:44.704Z,22.50
2019-02-24T12:45:44.691Z,22.50
2019-02-24T12:46:44.683Z,22.50
2019-02-24T12:47:44.670Z,16.87
2019-02-24T12:48:44.664Z,16.87
2019-02-24T12:49:44.651Z,16.87
2019-02-24T12:50:44.638Z,16.87
2019-02-24T12:51:44.627Z,16.87
2019-02-24T12:52:44.616Z,11.25
2019-02-24T12:53:44.607Z,11.25
2019-02-24T12:54:44.593Z,11.25
2019-02-24T12:55:44.585Z,11.25
2019-02-24T12:56:44.571Z,11.25
2019-02-24T12:57:44.570Z,11.25
2019-02-24T12:58:44.550Z,5.62
2019-02-24T12:59:44.540Z,5.62
2019-02-24T13:00:44.531Z,5.62
2019-02-24T13:01:44.520Z,5.62
2019-02-24T13:02:44.517Z,5.62
2019-02-24T13:03:44.499Z,5.62
2019-02-24T13:04:44.490Z,5.62
2019-02-24T13:05:44.478Z,5.62
2019-02-24T13:06:44.465Z,5.62
2019-02-24T13:07:44.456Z,0.00
2019-02-24T13:08:44.443Z,0.00
2019-02-24T13:09:44.784Z,0.00
2019-02-24T13:10:44.424Z,0.00
2019-02-24T13:11:44.415Z,0.00
2019-02-24T13:12:44.409Z,0.00
2019-02-24T13:13:44.394Z,0.00
2019-02-24T13:14:44.379Z,0.00
2019-02-24T13:15:44.368Z,0.00
2019-02-24T13:16:44.366Z,0.00
2019-02-24T13:17:44.353Z,0.00
2019-02-24T13:18:44.336Z,0.00
2019-02-24T13:19:44.324Z,0.00
2019-02-24T13:20:44.315Z,0.00
2019-02-24T13:21:44.309Z,0.00
2019-02-24T13:22:44.293Z,0.00